createdAt,value
2017-12-20T00:00:25.042Z,100.00
2017-12-20T00:01:31.981Z,100.00
2017-12-20T00:02:38.545Z,100.00
2017-12-20T00:03:46.049Z,100.00
2017-12-20T00:04:52.733Z,100.00
2017-12-20T00:06:00.033Z,100.00
2017-12-20T00:07:07.144Z,100.00
2017-12-20T00:08:14.085Z,100.00
2017-12-20T00:09:22.215Z,100.00
2017-12-20T00:10:29.657Z,100.00
2017-12-20T00:11:36.856Z,100.00
2017-12-20T00:12:44.057Z,100.00
2017-12-20T00:13:54.009Z,100.00
2017-12-20T00:15:00.865Z,100.00
2017-12-20T00:16:07.890Z,100.00
2017-12-20T00:17:15.832Z,100.00
2017-12-20T00:18:26.785Z,100.00
2017-12-20T00:19:34.240Z,100.00
2017-12-20T00:20:44.655Z,100.00
2017-12-20T00:21:54.077Z,100.00
2017-12-20T00:23:01.030Z,100.00
2017-12-20T00:24:07.303Z,100.00
2017-12-20T00:25:13.565Z,100.00
2017-12-20T00:26:19.867Z,100.00
2017-12-20T00:27:25.787Z,100.00
2017-12-20T00:28:32.142Z,100.00
2017-12-20T00:29:38.352Z,100.00
2017-12-20T00:30:44.566Z,100.00
2017-12-20T00:31:50.782Z,100.00
2017-12-20T00:32:56.399Z,100.00
2017-12-20T00:34:02.092Z,100.00
2017-12-20T00:35:07.771Z,100.00
2017-12-20T00:36:13.475Z,100.00
2017-12-20T00:37:19.093Z,100.00
2017-12-20T00:38:24.787Z,100.00
2017-12-20T00:39:30.458Z,100.00
2017-12-20T00:40:36.793Z,100.00
2017-12-20T00:41:43.019Z,100.00
2017-12-20T00:42:49.249Z,100.00
2017-12-20T00:43:55.446Z,100.00
2017-12-20T00:45:01.438Z,100.00
2017-12-20T00:46:07.715Z,100.00
2017-12-20T00:47:13.921Z,100.00
2017-12-20T00:48:20.132Z,100.00
2017-12-20T00:49:34.323Z,100.00
2017-12-20T00:50:40.559Z,100.00
2017-12-20T00:51:46.806Z,100.00
2017-12-20T00:52:53.035Z,100.00
2017-12-20T00:53:59.274Z,100.00
2017-12-20T00:55:05.466Z,100.00
2017-12-20T00:56:11.667Z,100.00
2017-12-20T00:57:18.807Z,100.00
2017-12-20T00:58:24.983Z,100.00
2017-12-20T00:59:31.211Z,100.00
2017-12-20T01:00:37.423Z,100.00
2017-12-20T01:01:46.266Z,100.00
2017-12-20T01:02:52.578Z,100.00
2017-12-20T01:03:58.753Z,100.00
2017-12-20T01:05:05.535Z,100.00
2017-12-20T01:06:11.460Z,100.00
2017-12-20T01:07:17.671Z,100.00
2017-12-20T01:08:23.570Z,100.00
2017-12-20T01:09:29.514Z,100.00
2017-12-20T01:10:37.648Z,100.00
2017-12-20T01:11:43.910Z,100.00
2017-12-20T01:12:50.093Z,100.00
2017-12-20T01:13:56.383Z,100.00
2017-12-20T01:15:02.667Z,100.00
2017-12-20T01:16:08.873Z,100.00
2017-12-20T01:17:15.124Z,100.00
2017-12-20T01:18:21.335Z,100.00
2017-12-20T01:19:27.524Z,100.00
2017-12-20T01:20:33.790Z,100.00
2017-12-20T01:21:42.877Z,100.00
2017-12-20T01:22:49.180Z,100.00
2017-12-20T01:23:55.413Z,100.00
2017-12-20T01:25:01.688Z,100.00
2017-12-20T01:26:07.915Z,100.00
2017-12-20T01:27:14.125Z,100.00
2017-12-20T01:28:20.310Z,100.00
2017-12-20T01:29:26.539Z,100.00
2017-12-20T01:30:32.774Z,100.00
2017-12-20T01:31:39.495Z,100.00
2017-12-20T01:32:45.802Z,100.00
2017-12-20T01:33:52.195Z,100.00
2017-12-20T01:34:58.374Z,100.00
2017-12-20T01:36:04.290Z,100.00
2017-12-20T01:37:10.522Z,100.00
2017-12-20T01:38:16.758Z,100.00
2017-12-20T01:39:22.624Z,100.00
2017-12-20T01:40:28.201Z,100.00
2017-12-20T01:41:33.859Z,100.00
2017-12-20T01:42:39.402Z,100.00
2017-12-20T01:43:45.631Z,100.00
2017-12-20T01:44:51.819Z,100.00
2017-12-20T01:45:58.019Z,100.00
2017-12-20T01:47:04.254Z,100.00
2017-12-20T01:48:10.546Z,100.00
2017-12-20T01:49:16.783Z,100.00
2017-12-20T01:50:22.664Z,100.00
2017-12-20T01:51:28.914Z,100.00
2017-12-20T01:52:35.250Z,100.00
2017-12-20T01:53:41.151Z,100.00
2017-12-20T01:54:47.025Z,100.00
2017-12-20T01:55:52.580Z,100.00
2017-12-20T01:56:58.419Z,100.00
2017-12-20T01:58:04.277Z,100.00
2017-12-20T01:59:10.539Z,100.00
2017-12-20T02:00:16.060Z,100.00
2017-12-20T02:01:21.545Z,100.00
2017-12-20T02:02:26.358Z,100.00
2017-12-20T02:03:37.743Z,100.00
2017-12-20T02:04:44.881Z,100.00
2017-12-20T02:05:51.128Z,100.00
2017-12-20T02:06:57.307Z,100.00
2017-12-20T02:08:03.252Z,100.00
2017-12-20T02:09:09.452Z,100.00
2017-12-20T02:10:15.782Z,100.00
2017-12-20T02:11:22.023Z,100.00
2017-12-20T02:12:28.252Z,100.00
2017-12-20T02:13:34.846Z,100.00
2017-12-20T02:14:41.079Z,100.00
2017-12-20T02:15:47.284Z,100.00
2017-12-20T02:16:53.483Z,100.00
2017-12-20T02:17:59.451Z,100.00
2017-12-20T02:19:04.967Z,100.00
2017-12-20T02:20:10.858Z,100.00
2017-12-20T02:21:16.444Z,100.00
2017-12-20T02:22:22.023Z,100.00
2017-12-20T02:23:27.254Z,100.00
2017-12-20T02:24:32.779Z,100.00
2017-12-20T02:25:38.068Z,100.00
2017-12-20T02:26:43.571Z,100.00
2017-12-20T02:27:48.830Z,100.00
2017-12-20T02:28:59.752Z,100.00
2017-12-20T02:30:05.278Z,100.00
2017-12-20T02:31:10.485Z,100.00
2017-12-20T02:32:16.073Z,100.00
2017-12-20T02:33:29.842Z,100.00
2017-12-20T02:34:35.385Z,100.00
2017-12-20T02:35:40.886Z,100.00
2017-12-20T02:36:46.481Z,100.00
2017-12-20T02:37:51.730Z,100.00
2017-12-20T02:38:56.998Z,100.00
2017-12-20T02:40:02.213Z,100.00
2017-12-20T02:41:09.558Z,100.00
2017-12-20T02:42:15.174Z,100.00
2017-12-20T02:43:22.707Z,100.00
2017-12-20T02:44:28.944Z,100.00
2017-12-20T02:45:34.179Z,100.00
2017-12-20T02:46:39.416Z,100.00
2017-12-20T02:47:44.634Z,100.00
2017-12-20T02:48:49.913Z,100.00
2017-12-20T02:49:55.428Z,100.00
2017-12-20T02:51:00.930Z,100.00
2017-12-20T02:52:06.484Z,100.00
2017-12-20T02:53:13.645Z,100.00
2017-12-20T02:54:19.487Z,100.00
2017-12-20T02:55:25.003Z,100.00
2017-12-20T02:56:30.851Z,100.00
2017-12-20T02:57:36.353Z,100.00
2017-12-20T02:58:41.914Z,100.00
2017-12-20T02:59:47.439Z,100.00
2017-12-20T03:00:53.032Z,100.00
2017-12-20T03:01:58.532Z,100.00
2017-12-20T03:03:04.057Z,100.00
2017-12-20T03:04:09.623Z,100.00
2017-12-20T03:05:14.929Z,100.00
2017-12-20T03:06:20.617Z,100.00
2017-12-20T03:07:26.127Z,100.00
2017-12-20T03:08:31.656Z,100.00
2017-12-20T03:09:39.016Z,100.00
2017-12-20T03:10:44.863Z,100.00
2017-12-20T03:11:50.779Z,100.00
2017-12-20T03:12:56.337Z,100.00
2017-12-20T03:14:01.558Z,100.00
2017-12-20T03:15:07.071Z,100.00
2017-12-20T03:16:12.616Z,100.00
2017-12-20T03:17:18.872Z,100.00
2017-12-20T03:18:28.973Z,100.00
2017-12-20T03:19:35.170Z,100.00
2017-12-20T03:20:41.084Z,100.00
2017-12-20T03:21:47.646Z,100.00
2017-12-20T03:22:53.902Z,100.00
2017-12-20T03:24:00.121Z,100.00
2017-12-20T03:25:06.002Z,100.00
2017-12-20T03:26:11.867Z,100.00
2017-12-20T03:27:18.075Z,100.00
2017-12-20T03:28:24.037Z,100.00
2017-12-20T03:29:30.885Z,100.00
2017-12-20T03:30:39.263Z,100.00
2017-12-20T03:31:46.623Z,100.00
2017-12-20T03:32:53.547Z,100.00
2017-12-20T03:34:01.196Z,100.00
2017-12-20T03:35:08.682Z,100.00
2017-12-20T03:36:15.713Z,100.00
2017-12-20T03:37:23.338Z,100.00
2017-12-20T03:38:29.660Z,100.00
2017-12-20T03:39:36.791Z,100.00
2017-12-20T03:40:43.334Z,100.00
2017-12-20T03:41:50.602Z,100.00
2017-12-20T03:42:58.387Z,100.00
2017-12-20T03:44:05.358Z,100.00
2017-12-20T03:45:12.583Z,100.00
2017-12-20T03:46:19.293Z,100.00
2017-12-20T03:47:26.251Z,100.00
2017-12-20T03:48:32.953Z,100.00
2017-12-20T03:49:40.233Z,100.00
2017-12-20T03:50:46.790Z,100.00
2017-12-20T03:51:53.483Z,100.00
2017-12-20T03:53:00.764Z,100.00
2017-12-20T03:54:08.972Z,100.00
2017-12-20T03:55:15.962Z,100.00
2017-12-20T03:56:22.447Z,100.00
2017-12-20T03:57:28.542Z,100.00
2017-12-20T03:58:34.464Z,100.00
2017-12-20T03:59:41.556Z,100.00
2017-12-20T04:00:48.481Z,100.00
2017-12-20T04:01:55.227Z,100.00
2017-12-20T04:03:02.573Z,100.00
2017-12-20T04:04:08.905Z,100.00
2017-12-20T04:05:16.067Z,100.00
2017-12-20T04:06:23.504Z,100.00
2017-12-20T04:07:29.787Z,100.00
2017-12-20T04:08:36.804Z,100.00
2017-12-20T04:09:44.029Z,100.00
2017-12-20T04:10:51.331Z,100.00
2017-12-20T04:11:58.528Z,100.00
2017-12-20T04:13:05.391Z,100.00
2017-12-20T04:14:12.373Z,100.00
2017-12-20T04:15:20.764Z,100.00
2017-12-20T04:16:28.214Z,100.00
2017-12-20T04:17:35.725Z,100.00
2017-12-20T04:18:42.660Z,100.00
2017-12-20T04:19:49.609Z,100.00
2017-12-20T04:21:00.771Z,100.00
2017-12-20T04:22:07.097Z,100.00
2017-12-20T04:23:13.270Z,100.00
2017-12-20T04:24:19.525Z,100.00
2017-12-20T04:25:25.916Z,100.00
2017-12-20T04:26:32.233Z,100.00
2017-12-20T04:27:38.486Z,100.00
2017-12-20T04:28:44.874Z,100.00
2017-12-20T04:29:51.803Z,100.00
2017-12-20T04:30:58.075Z,100.00
2017-12-20T04:32:03.942Z,100.00
2017-12-20T04:33:10.732Z,100.00
2017-12-20T04:34:17.885Z,100.00
2017-12-20T04:35:24.954Z,100.00
2017-12-20T04:36:32.377Z,100.00
2017-12-20T04:37:39.622Z,100.00
2017-12-20T04:38:47.055Z,100.00
2017-12-20T04:39:53.553Z,100.00
2017-12-20T04:41:00.385Z,100.00
2017-12-20T04:42:07.197Z,100.00
2017-12-20T04:43:13.689Z,100.00
2017-12-20T04:44:20.620Z,100.00
2017-12-20T04:45:27.243Z,100.00
2017-12-20T04:46:33.670Z,100.00
2017-12-20T04:47:39.904Z,100.00
2017-12-20T04:48:46.351Z,100.00
2017-12-20T04:49:53.171Z,100.00
2017-12-20T04:51:00.532Z,100.00
2017-12-20T04:52:08.320Z,100.00
2017-12-20T04:53:14.739Z,100.00
2017-12-20T04:54:22.457Z,100.00
2017-12-20T04:55:30.792Z,100.00
2017-12-20T04:56:38.233Z,100.00
2017-12-20T04:57:44.830Z,100.00
2017-12-20T04:58:51.027Z,100.00
2017-12-20T04:59:57.802Z,100.00
2017-12-20T05:01:05.181Z,100.00
2017-12-20T05:02:12.512Z,100.00
2017-12-20T05:03:20.066Z,100.00
2017-12-20T05:04:26.913Z,100.00
2017-12-20T05:05:35.605Z,100.00
2017-12-20T05:06:42.458Z,100.00
2017-12-20T05:07:49.330Z,100.00
2017-12-20T05:08:57.320Z,100.00
2017-12-20T05:10:04.258Z,100.00
2017-12-20T05:11:11.115Z,100.00
2017-12-20T05:12:17.821Z,100.00
2017-12-20T05:13:24.714Z,100.00
2017-12-20T05:14:32.112Z,100.00
2017-12-20T05:15:39.177Z,100.00
2017-12-20T05:16:47.496Z,100.00
2017-12-20T05:17:55.271Z,100.00
2017-12-20T05:19:02.287Z,100.00
2017-12-20T05:20:09.363Z,100.00
2017-12-20T05:21:17.192Z,100.00
2017-12-20T05:22:24.517Z,100.00
2017-12-20T05:23:31.102Z,100.00
2017-12-20T05:24:38.500Z,100.00
2017-12-20T05:25:45.926Z,100.00
2017-12-20T05:26:52.626Z,100.00
2017-12-20T05:27:59.435Z,100.00
2017-12-20T05:29:07.668Z,100.00
2017-12-20T05:30:14.588Z,100.00
2017-12-20T05:31:21.561Z,100.00
2017-12-20T05:32:28.295Z,100.00
2017-12-20T05:33:35.576Z,100.00
2017-12-20T05:34:43.411Z,100.00
2017-12-20T05:35:50.954Z,100.00
2017-12-20T05:36:59.643Z,100.00
2017-12-20T05:38:06.338Z,100.00
2017-12-20T05:39:13.580Z,100.00
2017-12-20T05:40:20.231Z,100.00
2017-12-20T05:41:27.112Z,100.00
2017-12-20T05:42:35.399Z,100.00
2017-12-20T05:43:41.919Z,100.00
2017-12-20T05:44:48.645Z,100.00
2017-12-20T05:45:56.563Z,100.00
2017-12-20T05:47:03.770Z,100.00
2017-12-20T05:48:11.148Z,100.00
2017-12-20T05:49:19.174Z,100.00
2017-12-20T05:50:32.694Z,100.00
2017-12-20T05:51:39.430Z,100.00
2017-12-20T05:52:48.677Z,100.00
2017-12-20T05:53:55.547Z,100.00
2017-12-20T05:55:03.140Z,100.00
2017-12-20T05:56:10.695Z,100.00
2017-12-20T05:57:18.178Z,100.00
2017-12-20T05:58:26.229Z,100.00
2017-12-20T05:59:34.334Z,100.00
2017-12-20T06:00:41.845Z,100.00
2017-12-20T06:01:51.995Z,100.00
2017-12-20T06:02:59.186Z,100.00
2017-12-20T06:04:06.521Z,100.00
2017-12-20T06:05:14.901Z,100.00
2017-12-20T06:06:22.902Z,100.00
2017-12-20T06:07:30.401Z,100.00
2017-12-20T06:08:37.676Z,100.00
2017-12-20T06:09:44.748Z,100.00
2017-12-20T06:10:52.887Z,100.00
2017-12-20T06:12:00.288Z,100.00
2017-12-20T06:13:08.830Z,100.00
2017-12-20T06:14:16.976Z,100.00
2017-12-20T06:15:25.314Z,100.00
2017-12-20T06:16:33.267Z,100.00
2017-12-20T06:17:40.713Z,100.00
2017-12-20T06:18:50.824Z,100.00
2017-12-20T06:19:57.731Z,100.00
2017-12-20T06:21:04.019Z,100.00
2017-12-20T06:22:10.303Z,100.00
2017-12-20T06:23:16.551Z,100.00
2017-12-20T06:24:24.551Z,100.00
2017-12-20T06:25:31.891Z,100.00
2017-12-20T06:26:38.627Z,100.00
2017-12-20T06:27:45.454Z,100.00
2017-12-20T06:28:53.195Z,100.00
2017-12-20T06:30:00.975Z,100.00
2017-12-20T06:31:08.349Z,100.00
2017-12-20T06:32:18.379Z,100.00
2017-12-20T06:33:25.589Z,100.00
2017-12-20T06:34:32.743Z,100.00
2017-12-20T06:35:40.779Z,100.00
2017-12-20T06:36:48.235Z,100.00
2017-12-20T06:37:56.568Z,100.00
2017-12-20T06:39:07.424Z,100.00
2017-12-20T06:40:14.491Z,100.00
2017-12-20T06:41:21.242Z,100.00
2017-12-20T06:42:28.258Z,100.00
2017-12-20T06:43:35.681Z,100.00
2017-12-20T06:44:42.990Z,100.00
2017-12-20T06:45:51.199Z,100.00
2017-12-20T06:46:57.424Z,100.00
2017-12-20T06:48:04.120Z,100.00
2017-12-20T06:49:10.950Z,100.00
2017-12-20T06:50:19.350Z,100.00
2017-12-20T06:51:26.485Z,100.00
2017-12-20T06:52:33.627Z,100.00
2017-12-20T06:53:40.810Z,100.00
2017-12-20T06:54:48.609Z,100.00
2017-12-20T06:55:55.448Z,100.00
2017-12-20T06:57:02.653Z,100.00
2017-12-20T06:58:10.058Z,100.00
2017-12-20T06:59:17.367Z,100.00
2017-12-20T07:00:25.668Z,100.00
2017-12-20T07:01:34.551Z,100.00
2017-12-20T07:02:42.359Z,100.00
2017-12-20T07:03:49.328Z,100.00
2017-12-20T07:04:56.660Z,100.00
2017-12-20T07:06:08.320Z,100.00
2017-12-20T07:07:15.307Z,100.00
2017-12-20T07:08:27.196Z,100.00
2017-12-20T07:09:33.418Z,100.00
2017-12-20T07:10:39.684Z,100.00
2017-12-20T07:11:45.888Z,100.00
2017-12-20T07:12:52.132Z,100.00
2017-12-20T07:13:58.388Z,100.00
2017-12-20T07:15:04.311Z,100.00
2017-12-20T07:16:10.528Z,100.00
2017-12-20T07:17:16.742Z,100.00
2017-12-20T07:18:22.950Z,100.00
2017-12-20T07:19:29.140Z,100.00
2017-12-20T07:20:35.408Z,100.00
2017-12-20T07:21:41.647Z,100.00
2017-12-20T07:22:47.942Z,100.00
2017-12-20T07:23:54.374Z,100.00
2017-12-20T07:25:00.715Z,100.00
2017-12-20T07:26:06.897Z,100.00
2017-12-20T07:27:13.168Z,100.00
2017-12-20T07:28:22.008Z,100.00
2017-12-20T07:29:28.829Z,100.00
2017-12-20T07:30:36.010Z,100.00
2017-12-20T07:31:43.721Z,100.00
2017-12-20T07:32:51.967Z,100.00
2017-12-20T07:33:59.660Z,100.00
2017-12-20T07:35:07.354Z,100.00
2017-12-20T07:36:16.552Z,100.00
2017-12-20T07:37:24.183Z,100.00
2017-12-20T07:38:31.523Z,100.00
2017-12-20T07:39:38.756Z,100.00
2017-12-20T07:40:46.307Z,100.00
2017-12-20T07:41:53.933Z,100.00
2017-12-20T07:43:02.022Z,100.00
2017-12-20T07:44:09.806Z,100.00
2017-12-20T07:45:17.810Z,100.00
2017-12-20T07:46:25.093Z,100.00
2017-12-20T07:47:32.288Z,100.00
2017-12-20T07:48:39.780Z,100.00
2017-12-20T07:49:46.415Z,100.00
2017-12-20T07:50:53.330Z,100.00
2017-12-20T07:52:00.909Z,100.00
2017-12-20T07:53:09.280Z,100.00
2017-12-20T07:54:16.615Z,100.00
2017-12-20T07:55:24.005Z,100.00
2017-12-20T07:56:31.460Z,100.00
2017-12-20T07:57:38.991Z,100.00
2017-12-20T07:58:46.156Z,100.00
2017-12-20T07:59:53.510Z,100.00
2017-12-20T08:01:01.470Z,100.00
2017-12-20T08:02:09.191Z,100.00
2017-12-20T08:03:17.404Z,100.00
2017-12-20T08:04:24.463Z,100.00
2017-12-20T08:05:32.156Z,100.00
2017-12-20T08:06:39.656Z,100.00
2017-12-20T08:07:46.303Z,100.00
2017-12-20T08:08:52.516Z,100.00
2017-12-20T08:09:58.740Z,100.00
2017-12-20T08:11:05.011Z,100.00
2017-12-20T08:12:11.183Z,100.00
2017-12-20T08:13:17.474Z,100.00
2017-12-20T08:14:23.664Z,100.00
2017-12-20T08:15:30.119Z,100.00
2017-12-20T08:16:40.003Z,100.00
2017-12-20T08:17:48.330Z,100.00
2017-12-20T08:18:55.841Z,100.00
2017-12-20T08:20:03.266Z,100.00
2017-12-20T08:21:10.623Z,100.00
2017-12-20T08:22:18.467Z,100.00
2017-12-20T08:23:26.879Z,100.00
2017-12-20T08:24:34.613Z,100.00
2017-12-20T08:25:41.541Z,100.00
2017-12-20T08:26:48.191Z,100.00
2017-12-20T08:27:55.902Z,100.00
2017-12-20T08:29:03.186Z,100.00
2017-12-20T08:30:10.790Z,100.00
2017-12-20T08:31:18.301Z,100.00
2017-12-20T08:32:26.837Z,100.00
2017-12-20T08:33:34.222Z,100.00
2017-12-20T08:34:42.831Z,100.00
2017-12-20T08:35:49.681Z,100.00
2017-12-20T08:36:56.853Z,100.00
2017-12-20T08:38:04.356Z,100.00
2017-12-20T08:39:11.849Z,100.00
2017-12-20T08:40:20.838Z,100.00
2017-12-20T08:41:28.044Z,100.00
2017-12-20T08:42:35.158Z,100.00
2017-12-20T08:43:43.068Z,100.00
2017-12-20T08:44:50.617Z,100.00
2017-12-20T08:45:58.268Z,100.00
2017-12-20T08:47:07.226Z,100.00
2017-12-20T08:48:15.342Z,100.00
2017-12-20T08:49:22.938Z,100.00
2017-12-20T08:50:30.154Z,100.00
2017-12-20T08:51:37.696Z,100.00
2017-12-20T08:52:44.919Z,99.83
2017-12-20T08:53:52.088Z,99.70
2017-12-20T08:54:58.683Z,99.59
2017-12-20T08:56:05.491Z,99.56
2017-12-20T08:57:12.678Z,99.45
2017-12-20T08:58:19.497Z,99.37
2017-12-20T08:59:26.073Z,99.30
2017-12-20T09:00:32.388Z,99.18
2017-12-20T09:01:40.068Z,99.04
2017-12-20T09:02:47.931Z,99.09
2017-12-20T09:03:54.546Z,99.08
2017-12-20T09:05:00.753Z,98.98
2017-12-20T09:06:08.503Z,98.87
2017-12-20T09:07:15.419Z,98.76
2017-12-20T09:08:22.161Z,98.71
2017-12-20T09:09:28.427Z,98.75
2017-12-20T09:10:35.434Z,98.72
2017-12-20T09:11:42.720Z,98.73
2017-12-20T09:12:50.560Z,98.65
2017-12-20T09:13:58.414Z,98.65
2017-12-20T09:15:06.051Z,98.71
2017-12-20T09:16:13.006Z,98.83
2017-12-20T09:17:20.241Z,98.84
2017-12-20T09:18:27.458Z,98.78
2017-12-20T09:19:34.879Z,98.74
2017-12-20T09:20:43.423Z,98.69
2017-12-20T09:21:50.984Z,98.58
2017-12-20T09:22:58.409Z,98.82
2017-12-20T09:24:06.214Z,98.76
2017-12-20T09:25:13.594Z,98.64
2017-12-20T09:26:22.209Z,98.66
2017-12-20T09:27:29.519Z,98.88
2017-12-20T09:28:38.805Z,99.23
2017-12-20T09:29:46.104Z,99.03
2017-12-20T09:30:53.604Z,99.01
2017-12-20T09:32:00.947Z,98.88
2017-12-20T09:33:07.909Z,98.77
2017-12-20T09:34:15.404Z,98.66
2017-12-20T09:35:22.300Z,98.77
2017-12-20T09:36:28.553Z,98.67
2017-12-20T09:37:34.859Z,98.36
2017-12-20T09:38:41.292Z,98.87
2017-12-20T09:39:47.554Z,98.85
2017-12-20T09:40:53.814Z,98.99
2017-12-20T09:42:00.052Z,99.02
2017-12-20T09:43:06.311Z,98.83
2017-12-20T09:44:12.605Z,98.84
2017-12-20T09:45:18.862Z,99.09
2017-12-20T09:46:25.082Z,99.09
2017-12-20T09:47:31.404Z,98.91
2017-12-20T09:48:37.695Z,98.79
2017-12-20T09:49:43.924Z,98.64
2017-12-20T09:50:50.217Z,98.53
2017-12-20T09:51:56.478Z,98.42
2017-12-20T09:53:04.601Z,98.35
2017-12-20T09:54:20.100Z,98.35
2017-12-20T09:55:31.097Z,98.24
2017-12-20T09:56:37.385Z,98.13
2017-12-20T09:57:43.666Z,98.16
2017-12-20T09:58:49.977Z,98.18
2017-12-20T09:59:56.224Z,98.25
2017-12-20T10:01:02.537Z,98.23
2017-12-20T10:02:09.938Z,98.24
2017-12-20T10:03:17.108Z,98.30
2017-12-20T10:04:23.792Z,98.33
2017-12-20T10:05:29.696Z,98.45
2017-12-20T10:06:35.933Z,98.63
2017-12-20T10:07:42.147Z,98.72
2017-12-20T10:08:47.703Z,98.83
2017-12-20T10:09:53.900Z,98.89
2017-12-20T10:10:59.861Z,98.82
2017-12-20T10:12:05.705Z,98.83
2017-12-20T10:13:11.954Z,98.82
2017-12-20T10:14:25.774Z,98.93
2017-12-20T10:15:36.742Z,98.93
2017-12-20T10:16:56.658Z,98.74
2017-12-20T10:18:04.477Z,98.56
2017-12-20T10:19:10.718Z,98.41
2017-12-20T10:20:16.923Z,98.32
2017-12-20T10:21:25.161Z,98.21
2017-12-20T10:22:31.387Z,98.02
2017-12-20T10:23:37.598Z,97.73
2017-12-20T10:24:43.847Z,97.44
2017-12-20T10:25:49.741Z,97.30
2017-12-20T10:26:55.705Z,97.33
2017-12-20T10:28:01.935Z,97.01
2017-12-20T10:29:07.762Z,97.11
2017-12-20T10:30:13.990Z,97.00
2017-12-20T10:31:20.283Z,96.57
2017-12-20T10:32:26.128Z,96.52
2017-12-20T10:33:32.342Z,96.49
2017-12-20T10:34:38.516Z,96.36
2017-12-20T10:35:44.787Z,96.29
2017-12-20T10:36:50.644Z,96.19
2017-12-20T10:37:56.530Z,96.09
2017-12-20T10:39:02.739Z,96.22
2017-12-20T10:40:08.960Z,96.14
2017-12-20T10:41:15.216Z,96.17
2017-12-20T10:42:21.482Z,95.90
2017-12-20T10:43:27.362Z,95.70
2017-12-20T10:44:33.255Z,95.54
2017-12-20T10:45:38.799Z,95.64
2017-12-20T10:46:45.219Z,96.32
2017-12-20T10:47:51.074Z,96.34
2017-12-20T10:48:56.963Z,96.42
2017-12-20T10:50:02.907Z,96.32
2017-12-20T10:51:09.164Z,96.11
2017-12-20T10:52:15.422Z,96.17
2017-12-20T10:53:21.647Z,96.01
2017-12-20T10:54:27.896Z,95.95
2017-12-20T10:55:33.711Z,95.76
2017-12-20T10:56:39.693Z,95.73
2017-12-20T10:57:45.898Z,95.69
2017-12-20T10:58:51.835Z,95.60
2017-12-20T10:59:58.092Z,95.41
2017-12-20T11:01:04.017Z,95.23
2017-12-20T11:02:09.921Z,95.21
2017-12-20T11:03:16.178Z,95.31
2017-12-20T11:04:22.446Z,95.36
2017-12-20T11:05:28.674Z,95.22
2017-12-20T11:06:34.625Z,95.09
2017-12-20T11:07:40.944Z,95.27
2017-12-20T11:08:47.153Z,95.34
2017-12-20T11:09:53.052Z,95.07
2017-12-20T11:10:59.396Z,95.11
2017-12-20T11:12:05.373Z,95.07
2017-12-20T11:13:11.615Z,95.05
2017-12-20T11:14:18.230Z,95.05
2017-12-20T11:15:24.467Z,95.19
2017-12-20T11:16:30.726Z,95.33
2017-12-20T11:17:36.961Z,95.37
2017-12-20T11:18:43.224Z,95.26
2017-12-20T11:19:49.785Z,95.31
2017-12-20T11:20:55.795Z,95.24
2017-12-20T11:22:01.316Z,95.30
2017-12-20T11:23:06.906Z,95.19
2017-12-20T11:24:12.826Z,95.11
2017-12-20T11:25:19.023Z,95.26
2017-12-20T11:26:25.236Z,95.31
2017-12-20T11:27:31.494Z,95.38
2017-12-20T11:28:37.670Z,95.52
2017-12-20T11:29:43.879Z,95.80
2017-12-20T11:30:49.255Z,95.83
2017-12-20T11:31:54.817Z,95.89
2017-12-20T11:33:00.723Z,95.97
2017-12-20T11:34:09.512Z,96.18
2017-12-20T11:35:15.695Z,96.05
2017-12-20T11:36:21.255Z,96.00
2017-12-20T11:37:27.176Z,95.90
2017-12-20T11:38:33.378Z,95.79
2017-12-20T11:39:39.587Z,95.81
2017-12-20T11:40:45.873Z,95.62
2017-12-20T11:41:52.129Z,95.76
2017-12-20T11:42:58.337Z,95.80
2017-12-20T11:44:04.545Z,95.68
2017-12-20T11:45:10.869Z,95.59
2017-12-20T11:46:17.319Z,95.83
2017-12-20T11:47:23.558Z,95.96
2017-12-20T11:48:29.836Z,96.11
2017-12-20T11:49:36.045Z,96.17
2017-12-20T11:50:42.296Z,96.33
2017-12-20T11:51:48.482Z,96.40
2017-12-20T11:52:54.715Z,96.33
2017-12-20T11:54:00.874Z,96.37
2017-12-20T11:55:06.802Z,96.49
2017-12-20T11:56:13.009Z,96.59
2017-12-20T11:57:19.326Z,96.65
2017-12-20T11:58:25.491Z,96.85
2017-12-20T11:59:31.329Z,97.01
2017-12-20T12:00:36.859Z,96.78
2017-12-20T12:01:42.394Z,96.66
2017-12-20T12:02:48.740Z,96.68
2017-12-20T12:03:54.669Z,96.54
2017-12-20T12:05:00.950Z,96.41
2017-12-20T12:06:07.258Z,96.35
2017-12-20T12:07:13.434Z,96.21
2017-12-20T12:08:19.693Z,96.15
2017-12-20T12:09:25.891Z,96.03
2017-12-20T12:10:32.157Z,96.19
2017-12-20T12:11:38.154Z,96.24
2017-12-20T12:12:44.434Z,96.18
2017-12-20T12:13:50.644Z,96.12
2017-12-20T12:14:56.925Z,96.11
2017-12-20T12:16:02.787Z,95.93
2017-12-20T12:17:08.981Z,95.83
2017-12-20T12:18:15.194Z,95.81
2017-12-20T12:19:21.444Z,95.86
2017-12-20T12:20:28.571Z,95.92
2017-12-20T12:21:34.222Z,95.74
2017-12-20T12:22:40.533Z,95.55
2017-12-20T12:23:46.727Z,95.54
2017-12-20T12:24:53.000Z,95.65
2017-12-20T12:25:58.570Z,95.76
2017-12-20T12:27:04.136Z,95.78
2017-12-20T12:28:10.478Z,95.84
2017-12-20T12:29:16.424Z,95.96
2017-12-20T12:30:23.221Z,96.08
2017-12-20T12:31:29.457Z,96.27
2017-12-20T12:32:35.740Z,96.44
2017-12-20T12:33:41.726Z,96.51
2017-12-20T12:34:48.013Z,96.50
2017-12-20T12:35:55.137Z,96.41
2017-12-20T12:37:01.357Z,96.29
2017-12-20T12:38:07.633Z,96.21
2017-12-20T12:39:14.491Z,96.17
2017-12-20T12:40:21.242Z,96.12
2017-12-20T12:41:27.161Z,95.93
2017-12-20T12:42:33.060Z,95.89
2017-12-20T12:43:39.349Z,95.98
2017-12-20T12:44:45.618Z,96.15
2017-12-20T12:45:51.648Z,96.45
2017-12-20T12:47:03.716Z,96.48
2017-12-20T12:48:09.623Z,96.44
2017-12-20T12:49:15.592Z,96.34
2017-12-20T12:50:22.236Z,96.28
2017-12-20T12:51:28.246Z,96.33
2017-12-20T12:52:34.166Z,96.33
2017-12-20T12:53:40.439Z,96.32
2017-12-20T12:54:46.721Z,96.45
2017-12-20T12:55:53.017Z,96.25
2017-12-20T12:57:00.026Z,96.17
2017-12-20T12:58:05.930Z,96.53
2017-12-20T12:59:12.123Z,96.53
2017-12-20T13:00:17.645Z,96.54
2017-12-20T13:01:23.890Z,96.49
2017-12-20T13:02:30.131Z,96.45
2017-12-20T13:03:36.502Z,96.30
2017-12-20T13:04:42.834Z,96.22
2017-12-20T13:05:49.154Z,96.25
2017-12-20T13:06:55.448Z,96.17
2017-12-20T13:08:01.744Z,95.90
2017-12-20T13:09:09.039Z,95.80
2017-12-20T13:10:15.321Z,95.77
2017-12-20T13:11:21.698Z,95.87
2017-12-20T13:12:27.746Z,96.08
2017-12-20T13:13:33.999Z,96.14
2017-12-20T13:14:40.274Z,96.12
2017-12-20T13:15:46.179Z,96.17
2017-12-20T13:16:52.817Z,96.03
2017-12-20T13:17:59.065Z,95.76
2017-12-20T13:19:05.303Z,95.96
2017-12-20T13:20:11.562Z,96.02
2017-12-20T13:21:17.847Z,96.12
2017-12-20T13:22:24.136Z,96.05
2017-12-20T13:23:30.358Z,95.93
2017-12-20T13:24:36.668Z,96.02
2017-12-20T13:25:43.152Z,95.85
2017-12-20T13:26:49.383Z,95.71
2017-12-20T13:27:55.704Z,95.81
2017-12-20T13:29:02.190Z,95.83
2017-12-20T13:30:08.537Z,95.77
2017-12-20T13:31:17.892Z,95.89
2017-12-20T13:32:24.177Z,95.88
2017-12-20T13:33:33.363Z,96.04
2017-12-20T13:34:39.684Z,96.01
2017-12-20T13:35:45.945Z,96.12
2017-12-20T13:36:51.893Z,95.96
2017-12-20T13:37:58.282Z,95.93
2017-12-20T13:39:03.916Z,95.98
2017-12-20T13:40:10.220Z,96.09
2017-12-20T13:41:16.484Z,96.06
2017-12-20T13:42:23.593Z,96.03
2017-12-20T13:43:29.846Z,96.03
2017-12-20T13:44:36.187Z,96.06
2017-12-20T13:45:42.524Z,96.02
2017-12-20T13:46:48.115Z,96.09
2017-12-20T13:47:54.351Z,96.10
2017-12-20T13:49:00.652Z,96.11
2017-12-20T13:50:06.943Z,96.06
2017-12-20T13:51:12.484Z,96.08
2017-12-20T13:52:18.762Z,96.27
2017-12-20T13:53:25.045Z,96.17
2017-12-20T13:54:30.964Z,96.28
2017-12-20T13:55:37.193Z,96.32
2017-12-20T13:56:43.438Z,96.26
2017-12-20T13:57:49.723Z,96.25
2017-12-20T13:58:56.015Z,96.36
2017-12-20T14:00:02.075Z,96.35
2017-12-20T14:01:07.360Z,96.42
2017-12-20T14:02:12.928Z,96.58
2017-12-20T14:03:18.842Z,96.79